sensor_id;sensor_type;location;lat;lon;timestamp;P1;durP1;ratioP1;P2;durP2;ratioP2
30249;SDS011;17064;47.974;13.826;2023-02-11T00:01:26;26.55;;;11.57;;
30249;SDS011;17064;47.974;13.826;2023-02-11T00:06:29;34.63;;;12.80;;
30249;SDS011;17064;47.974;13.826;2023-02-11T00:11:32;31.98;;;13.02;;
30249;SDS011;17064;47.974;13.826;2023-02-11T00:16:33;28.42;;;12.70;;
30249;SDS011;17064;47.974;13.826;2023-02-11T00:21:34;25.60;;;11.70;;
30249;SDS011;17064;47.974;13.826;2023-02-11T00:26:34;27.15;;;11.38;;
30249;SDS011;17064;47.974;13.826;2023-02-11T00:31:35;28.98;;;12.27;;
30249;SDS011;17064;47.974;13.826;2023-02-11T00:36:36;28.80;;;12.00;;
30249;SDS011;17064;47.974;13.826;2023-02-11T00:41:37;26.73;;;11.93;;
30249;SDS011;17064;47.974;13.826;2023-02-11T00:46:37;24.10;;;10.43;;
30249;SDS011;17064;47.974;13.826;2023-02-11T00:51:38;30.00;;;11.95;;
30249;SDS011;17064;47.974;13.826;2023-02-11T00:56:39;27.42;;;10.98;;
30249;SDS011;17064;47.974;13.826;2023-02-11T01:01:39;29.05;;;10.88;;
30249;SDS011;17064;47.974;13.826;2023-02-11T01:06:40;22.08;;;11.13;;
30249;SDS011;17064;47.974;13.826;2023-02-11T01:11:41;25.58;;;11.45;;
30249;SDS011;17064;47.974;13.826;2023-02-11T01:16:42;26.77;;;11.18;;
30249;SDS011;17064;47.974;13.826;2023-02-11T01:21:43;24.85;;;10.77;;
30249;SDS011;17064;47.974;13.826;2023-02-11T01:26:43;29.80;;;11.70;;
30249;SDS011;17064;47.974;13.826;2023-02-11T01:31:44;25.02;;;9.90;;
30249;SDS011;17064;47.974;13.826;2023-02-11T01:36:45;24.15;;;11.00;;
30249;SDS011;17064;47.974;13.826;2023-02-11T01:41:45;23.67;;;9.52;;
30249;SDS011;17064;47.974;13.826;2023-02-11T01:46:46;25.60;;;9.40;;
30249;SDS011;17064;47.974;13.826;2023-02-11T01:51:49;20.27;;;8.73;;
30249;SDS011;17064;47.974;13.826;2023-02-11T01:57:12;18.17;;;8.52;;
30249;SDS011;17064;47.974;13.826;2023-02-11T02:13:00;21.77;;;9.32;;
30249;SDS011;17064;47.974;13.826;2023-02-11T02:23:29;19.85;;;7.95;;
30249;SDS011;17064;47.974;13.826;2023-02-11T02:34:01;13.63;;;7.13;;
30249;SDS011;17064;47.974;13.826;2023-02-11T02:39:10;17.25;;;6.88;;
30249;SDS011;17064;47.974;13.826;2023-02-11T02:44:31;14.30;;;6.30;;
30249;SDS011;17064;47.974;13.826;2023-02-11T02:49:32;19.67;;;6.78;;
30249;SDS011;17064;47.974;13.826;2023-02-11T03:00:36;16.40;;;6.63;;
30249;SDS011;17064;47.974;13.826;2023-02-11T03:10:32;15.13;;;6.78;;
30249;SDS011;17064;47.974;13.826;2023-02-11T03:15:37;17.55;;;6.18;;
30249;SDS011;17064;47.974;13.826;2023-02-11T03:20:41;14.32;;;6.28;;
30249;SDS011;17064;47.974;13.826;2023-02-11T03:25:44;12.88;;;5.45;;
30249;SDS011;17064;47.974;13.826;2023-02-11T03:30:52;16.05;;;5.85;;
30249;SDS011;17064;47.974;13.826;2023-02-11T03:36:05;13.60;;;5.72;;
30249;SDS011;17064;47.974;13.826;2023-02-11T03:41:11;13.15;;;5.43;;
30249;SDS011;17064;47.974;13.826;2023-02-11T03:46:16;11.90;;;6.00;;
30249;SDS011;17064;47.974;13.826;2023-02-11T03:51:20;14.02;;;5.47;;
30249;SDS011;17064;47.974;13.826;2023-02-11T03:56:24;10.98;;;4.90;;
30249;SDS011;17064;47.974;13.826;2023-02-11T04:01:28;8.55;;;4.25;;
30249;SDS011;17064;47.974;13.826;2023-02-11T04:06:29;12.38;;;5.13;;
30249;SDS011;17064;47.974;13.826;2023-02-11T04:11:30;17.00;;;5.40;;
30249;SDS011;17064;47.974;13.826;2023-02-11T04:16:30;13.25;;;5.15;;
30249;SDS011;17064;47.974;13.826;2023-02-11T04:21:31;11.38;;;5.68;;
30249;SDS011;17064;47.974;13.826;2023-02-11T04:26:32;12.88;;;5.32;;
30249;SDS011;17064;47.974;13.826;2023-02-11T04:31:32;9.98;;;4.88;;
30249;SDS011;17064;47.974;13.826;2023-02-11T04:36:33;12.40;;;5.65;;
30249;SDS011;17064;47.974;13.826;2023-02-11T04:41:34;18.50;;;6.95;;
30249;SDS011;17064;47.974;13.826;2023-02-11T04:46:35;15.27;;;7.07;;
30249;SDS011;17064;47.974;13.826;2023-02-11T04:51:35;15.23;;;7.03;;
30249;SDS011;17064;47.974;13.826;2023-02-11T04:56:36;18.95;;;8.23;;
30249;SDS011;17064;47.974;13.826;2023-02-11T05:01:37;16.98;;;7.20;;
30249;SDS011;17064;47.974;13.826;2023-02-11T05:06:38;18.40;;;7.20;;
30249;SDS011;17064;47.974;13.826;2023-02-11T05:11:39;18.55;;;7.72;;
30249;SDS011;17064;47.974;13.826;2023-02-11T05:16:40;19.27;;;8.95;;
30249;SDS011;17064;47.974;13.826;2023-02-11T05:21:40;20.13;;;8.95;;
30249;SDS011;17064;47.974;13.826;2023-02-11T05:26:41;26.92;;;9.70;;
30249;SDS011;17064;47.974;13.826;2023-02-11T05:31:42;25.55;;;9.18;;
30249;SDS011;17064;47.974;13.826;2023-02-11T05:36:42;20.42;;;9.30;;
30249;SDS011;17064;47.974;13.826;2023-02-11T05:41:43;18.98;;;7.43;;
30249;SDS011;17064;47.974;13.826;2023-02-11T05:46:44;18.50;;;7.50;;
30249;SDS011;17064;47.974;13.826;2023-02-11T05:51:45;20.20;;;8.60;;
30249;SDS011;17064;47.974;13.826;2023-02-11T05:56:46;28.65;;;9.95;;
30249;SDS011;17064;47.974;13.826;2023-02-11T06:01:46;27.27;;;10.48;;
30249;SDS011;17064;47.974;13.826;2023-02-11T06:06:47;24.17;;;9.45;;
30249;SDS011;17064;47.974;13.826;2023-02-11T06:11:48;17.98;;;7.30;;
30249;SDS011;17064;47.974;13.826;2023-02-11T06:16:49;17.05;;;6.78;;
30249;SDS011;17064;47.974;13.826;2023-02-11T06:21:50;15.13;;;7.10;;
30249;SDS011;17064;47.974;13.826;2023-02-11T06:26:50;16.08;;;7.45;;
30249;SDS011;17064;47.974;13.826;2023-02-11T06:31:51;16.77;;;6.80;;
30249;SDS011;17064;47.974;13.826;2023-02-11T06:36:52;12.38;;;6.10;;
30249;SDS011;17064;47.974;13.826;2023-02-11T06:41:53;14.43;;;6.45;;
30249;SDS011;17064;47.974;13.826;2023-02-11T06:46:53;17.88;;;7.88;;
30249;SDS011;17064;47.974;13.826;2023-02-11T06:51:54;17.02;;;7.07;;
30249;SDS011;17064;47.974;13.826;2023-02-11T06:56:55;15.48;;;7.75;;
30249;SDS011;17064;47.974;13.826;2023-02-11T07:01:56;16.77;;;7.55;;
30249;SDS011;17064;47.974;13.826;2023-02-11T07:06:56;16.65;;;6.63;;
30249;SDS011;17064;47.974;13.826;2023-02-11T07:11:57;17.05;;;7.38;;
30249;SDS011;17064;47.974;13.826;2023-02-11T07:16:58;17.30;;;7.63;;
30249;SDS011;17064;47.974;13.826;2023-02-11T07:21:58;17.02;;;7.10;;
30249;SDS011;17064;47.974;13.826;2023-02-11T07:26:59;14.18;;;6.53;;
30249;SDS011;17064;47.974;13.826;2023-02-11T07:32:00;12.98;;;6.57;;
30249;SDS011;17064;47.974;13.826;2023-02-11T07:37:00;13.65;;;6.10;;
30249;SDS011;17064;47.974;13.826;2023-02-11T07:42:02;11.82;;;6.13;;
30249;SDS011;17064;47.974;13.826;2023-02-11T07:47:03;11.00;;;4.82;;
30249;SDS011;17064;47.974;13.826;2023-02-11T07:52:03;17.15;;;5.57;;
30249;SDS011;17064;47.974;13.826;2023-02-11T07:57:04;11.48;;;5.47;;
30249;SDS011;17064;47.974;13.826;2023-02-11T08:02:05;11.15;;;4.40;;
30249;SDS011;17064;47.974;13.826;2023-02-11T08:07:06;10.10;;;4.45;;
30249;SDS011;17064;47.974;13.826;2023-02-11T08:12:07;9.35;;;4.40;;
30249;SDS011;17064;47.974;13.826;2023-02-11T08:17:07;10.05;;;4.70;;
30249;SDS011;17064;47.974;13.826;2023-02-11T08:22:08;12.27;;;4.22;;
30249;SDS011;17064;47.974;13.826;2023-02-11T08:27:09;11.25;;;5.05;;
30249;SDS011;17064;47.974;13.826;2023-02-11T08:32:09;8.82;;;4.32;;
30249;SDS011;17064;47.974;13.826;2023-02-11T08:37:10;13.45;;;5.13;;
30249;SDS011;17064;47.974;13.826;2023-02-11T08:42:11;13.45;;;5.03;;
30249;SDS011;17064;47.974;13.826;2023-02-11T08:47:14;9.57;;;4.68;;
30249;SDS011;17064;47.974;13.826;2023-02-11T08:52:15;9.10;;;4.72;;
30249;SDS011;17064;47.974;13.826;2023-02-11T08:57:15;13.63;;;5.15;;
30249;SDS011;17064;47.974;13.826;2023-02-11T09:02:16;14.10;;;5.80;;
30249;SDS011;17064;47.974;13.826;2023-02-11T09:07:17;15.15;;;6.68;;
30249;SDS011;17064;47.974;13.826;2023-02-11T09:12:17;18.23;;;7.80;;
30249;SDS011;17064;47.974;13.826;2023-02-11T09:17:18;18.33;;;8.50;;
30249;SDS011;17064;47.974;13.826;2023-02-11T09:22:19;16.02;;;7.72;;
30249;SDS011;17064;47.974;13.826;2023-02-11T09:27:20;16.35;;;7.35;;
30249;SDS011;17064;47.974;13.826;2023-02-11T09:32:20;16.50;;;6.75;;
30249;SDS011;17064;47.974;13.826;2023-02-11T09:37:21;19.20;;;7.82;;
30249;SDS011;17064;47.974;13.826;2023-02-11T09:47:46;14.38;;;7.32;;
30249;SDS011;17064;47.974;13.826;2023-02-11T09:58:02;14.60;;;7.28;;
30249;SDS011;17064;47.974;13.826;2023-02-11T10:03:11;14.70;;;6.57;;
30249;SDS011;17064;47.974;13.826;2023-02-11T10:18:39;16.80;;;7.32;;
30249;SDS011;17064;47.974;13.826;2023-02-11T10:23:50;16.48;;;7.60;;
30249;SDS011;17064;47.974;13.826;2023-02-11T10:28:53;16.73;;;8.07;;
30249;SDS011;17064;47.974;13.826;2023-02-11T10:34:02;18.30;;;7.53;;
30249;SDS011;17064;47.974;13.826;2023-02-11T10:39:14;16.90;;;7.80;;
30249;SDS011;17064;47.974;13.826;2023-02-11T10:54:34;17.45;;;7.30;;
30249;SDS011;17064;47.974;13.826;2023-02-11T10:59:36;16.02;;;7.95;;
30249;SDS011;17064;47.974;13.826;2023-02-11T11:04:39;15.02;;;7.50;;
30249;SDS011;17064;47.974;13.826;2023-02-11T11:09:46;22.08;;;8.10;;
30249;SDS011;17064;47.974;13.826;2023-02-11T11:14:59;15.18;;;7.50;;
30249;SDS011;17064;47.974;13.826;2023-02-11T11:20:28;14.30;;;5.95;;
30249;SDS011;17064;47.974;13.826;2023-02-11T11:25:34;15.52;;;7.60;;
30249;SDS011;17064;47.974;13.826;2023-02-11T11:30:40;18.98;;;7.57;;
30249;SDS011;17064;47.974;13.826;2023-02-11T11:40:43;13.15;;;5.95;;
30249;SDS011;17064;47.974;13.826;2023-02-11T11:45:57;11.73;;;6.05;;
30249;SDS011;17064;47.974;13.826;2023-02-11T11:51:00;13.93;;;5.70;;
30249;SDS011;17064;47.974;13.826;2023-02-11T12:17:00;11.75;;;5.40;;
30249;SDS011;17064;47.974;13.826;2023-02-11T12:22:28;13.10;;;7.07;;
30249;SDS011;17064;47.974;13.826;2023-02-11T12:27:55;11.85;;;5.47;;
30249;SDS011;17064;47.974;13.826;2023-02-11T12:43:44;13.23;;;5.53;;
30249;SDS011;17064;47.974;13.826;2023-02-11T12:54:18;11.13;;;4.85;;
30249;SDS011;17064;47.974;13.826;2023-02-11T13:04:34;13.85;;;4.80;;
30249;SDS011;17064;47.974;13.826;2023-02-11T13:09:43;11.60;;;5.28;;
30249;SDS011;17064;47.974;13.826;2023-02-11T13:14:51;10.43;;;5.05;;
30249;SDS011;17064;47.974;13.826;2023-02-11T13:20:00;10.73;;;4.72;;
30249;SDS011;17064;47.974;13.826;2023-02-11T13:30:22;10.15;;;5.15;;
30249;SDS011;17064;47.974;13.826;2023-02-11T13:35:35;9.18;;;4.63;;
30249;SDS011;17064;47.974;13.826;2023-02-11T13:40:38;9.88;;;4.53;;
30249;SDS011;17064;47.974;13.826;2023-02-11T13:45:46;11.90;;;3.90;;
30249;SDS011;17064;47.974;13.826;2023-02-11T13:50:50;8.00;;;3.75;;
30249;SDS011;17064;47.974;13.826;2023-02-11T13:56:21;7.30;;;3.58;;
30249;SDS011;17064;47.974;13.826;2023-02-11T14:23:43;9.23;;;4.30;;
30249;SDS011;17064;47.974;13.826;2023-02-11T14:34:22;7.78;;;3.33;;
30249;SDS011;17064;47.974;13.826;2023-02-11T14:45:05;8.25;;;4.40;;
30249;SDS011;17064;47.974;13.826;2023-02-11T14:50:26;5.45;;;2.83;;
30249;SDS011;17064;47.974;13.826;2023-02-11T14:55:34;7.03;;;3.25;;
30249;SDS011;17064;47.974;13.826;2023-02-11T15:11:21;8.85;;;2.88;;
30249;SDS011;17064;47.974;13.826;2023-02-11T15:16:26;6.30;;;3.28;;
30249;SDS011;17064;47.974;13.826;2023-02-11T15:21:29;9.63;;;4.35;;
30249;SDS011;17064;47.974;13.826;2023-02-11T15:26:32;9.50;;;4.32;;
30249;SDS011;17064;47.974;13.826;2023-02-11T15:31:33;8.63;;;3.88;;
30249;SDS011;17064;47.974;13.826;2023-02-11T15:36:33;7.80;;;4.07;;
30249;SDS011;17064;47.974;13.826;2023-02-11T15:41:36;11.13;;;5.18;;
30249;SDS011;17064;47.974;13.826;2023-02-11T15:46:37;13.07;;;6.03;;
30249;SDS011;17064;47.974;13.826;2023-02-11T15:51:39;16.05;;;7.45;;
30249;SDS011;17064;47.974;13.826;2023-02-11T15:56:47;17.73;;;7.65;;
30249;SDS011;17064;47.974;13.826;2023-02-11T16:01:50;19.80;;;8.35;;
30249;SDS011;17064;47.974;13.826;2023-02-11T16:06:53;25.85;;;9.55;;
30249;SDS011;17064;47.974;13.826;2023-02-11T16:11:56;20.25;;;7.68;;
30249;SDS011;17064;47.974;13.826;2023-02-11T16:22:09;21.45;;;8.30;;
30249;SDS011;17064;47.974;13.826;2023-02-11T16:27:22;15.80;;;7.40;;
30249;SDS011;17064;47.974;13.826;2023-02-11T16:32:28;11.18;;;5.68;;
30249;SDS011;17064;47.974;13.826;2023-02-11T16:37:29;14.13;;;6.18;;
30249;SDS011;17064;47.974;13.826;2023-02-11T16:42:31;11.73;;;5.82;;
30249;SDS011;17064;47.974;13.826;2023-02-11T16:47:33;11.68;;;5.88;;
30249;SDS011;17064;47.974;13.826;2023-02-11T16:52:35;14.70;;;6.32;;
30249;SDS011;17064;47.974;13.826;2023-02-11T16:57:37;11.90;;;5.32;;
30249;SDS011;17064;47.974;13.826;2023-02-11T17:02:38;15.23;;;5.78;;
30249;SDS011;17064;47.974;13.826;2023-02-11T17:07:39;13.63;;;5.32;;
30249;SDS011;17064;47.974;13.826;2023-02-11T17:12:40;9.90;;;4.30;;
30249;SDS011;17064;47.974;13.826;2023-02-11T17:17:42;7.70;;;4.40;;
30249;SDS011;17064;47.974;13.826;2023-02-11T17:22:43;11.55;;;4.18;;
30249;SDS011;17064;47.974;13.826;2023-02-11T17:27:44;10.07;;;4.53;;
30249;SDS011;17064;47.974;13.826;2023-02-11T17:32:45;15.73;;;4.95;;
30249;SDS011;17064;47.974;13.826;2023-02-11T17:37:46;9.43;;;4.97;;
30249;SDS011;17064;47.974;13.826;2023-02-11T17:42:47;10.52;;;4.80;;
30249;SDS011;17064;47.974;13.826;2023-02-11T17:47:51;8.13;;;3.88;;
30249;SDS011;17064;47.974;13.826;2023-02-11T17:52:52;7.43;;;3.67;;
30249;SDS011;17064;47.974;13.826;2023-02-11T17:57:56;10.02;;;5.00;;
30249;SDS011;17064;47.974;13.826;2023-02-11T18:02:57;9.57;;;4.43;;
30249;SDS011;17064;47.974;13.826;2023-02-11T18:08:05;12.82;;;4.57;;
30249;SDS011;17064;47.974;13.826;2023-02-11T18:13:08;10.63;;;5.25;;
30249;SDS011;17064;47.974;13.826;2023-02-11T18:18:10;10.85;;;5.40;;
30249;SDS011;17064;47.974;13.826;2023-02-11T18:23:11;7.88;;;3.70;;
30249;SDS011;17064;47.974;13.826;2023-02-11T18:28:12;8.57;;;4.20;;
30249;SDS011;17064;47.974;13.826;2023-02-11T18:33:13;10.27;;;4.60;;
30249;SDS011;17064;47.974;13.826;2023-02-11T18:38:14;12.77;;;5.18;;
30249;SDS011;17064;47.974;13.826;2023-02-11T18:43:16;12.50;;;5.38;;
30249;SDS011;17064;47.974;13.826;2023-02-11T18:48:18;11.95;;;5.45;;
30249;SDS011;17064;47.974;13.826;2023-02-11T18:53:19;12.15;;;4.80;;
30249;SDS011;17064;47.974;13.826;2023-02-11T18:58:21;10.73;;;4.90;;
30249;SDS011;17064;47.974;13.826;2023-02-11T19:03:23;9.65;;;4.93;;
30249;SDS011;17064;47.974;13.826;2023-02-11T19:08:26;8.18;;;4.35;;
30249;SDS011;17064;47.974;13.826;2023-02-11T19:13:27;8.40;;;4.25;;
30249;SDS011;17064;47.974;13.826;2023-02-11T19:18:29;8.00;;;4.18;;
30249;SDS011;17064;47.974;13.826;2023-02-11T19:23:31;11.48;;;4.78;;
30249;SDS011;17064;47.974;13.826;2023-02-11T19:28:33;8.13;;;4.15;;
30249;SDS011;17064;47.974;13.826;2023-02-11T19:33:36;9.63;;;4.75;;
30249;SDS011;17064;47.974;13.826;2023-02-11T19:38:38;8.73;;;4.25;;
30249;SDS011;17064;47.974;13.826;2023-02-11T19:43:39;8.55;;;4.30;;
30249;SDS011;17064;47.974;13.826;2023-02-11T19:48:41;13.45;;;5.20;;
30249;SDS011;17064;47.974;13.826;2023-02-11T19:53:42;12.25;;;5.43;;
30249;SDS011;17064;47.974;13.826;2023-02-11T19:58:45;14.43;;;4.93;;
30249;SDS011;17064;47.974;13.826;2023-02-11T20:03:47;11.10;;;5.22;;
30249;SDS011;17064;47.974;13.826;2023-02-11T20:08:55;10.95;;;5.22;;
30249;SDS011;17064;47.974;13.826;2023-02-11T20:13:59;27.15;;;5.95;;
30249;SDS011;17064;47.974;13.826;2023-02-11T20:19:01;12.93;;;5.88;;
30249;SDS011;17064;47.974;13.826;2023-02-11T20:24:02;14.98;;;5.15;;
30249;SDS011;17064;47.974;13.826;2023-02-11T20:29:04;9.15;;;5.15;;
30249;SDS011;17064;47.974;13.826;2023-02-11T20:34:05;9.75;;;5.57;;
30249;SDS011;17064;47.974;13.826;2023-02-11T20:39:07;13.88;;;5.68;;
30249;SDS011;17064;47.974;13.826;2023-02-11T20:44:16;11.40;;;5.65;;
30249;SDS011;17064;47.974;13.826;2023-02-11T20:49:18;14.57;;;6.22;;
30249;SDS011;17064;47.974;13.826;2023-02-11T20:54:22;16.55;;;6.80;;
30249;SDS011;17064;47.974;13.826;2023-02-11T20:59:23;13.23;;;6.45;;
30249;SDS011;17064;47.974;13.826;2023-02-11T21:04:27;15.20;;;6.30;;
30249;SDS011;17064;47.974;13.826;2023-02-11T21:09:32;12.05;;;5.97;;
30249;SDS011;17064;47.974;13.826;2023-02-11T21:14:33;13.65;;;6.47;;
30249;SDS011;17064;47.974;13.826;2023-02-11T21:19:35;11.52;;;5.97;;
30249;SDS011;17064;47.974;13.826;2023-02-11T21:24:36;11.38;;;5.97;;
30249;SDS011;17064;47.974;13.826;2023-02-11T21:29:37;12.80;;;6.40;;
30249;SDS011;17064;47.974;13.826;2023-02-11T21:34:38;15.13;;;6.90;;
30249;SDS011;17064;47.974;13.826;2023-02-11T21:39:39;11.88;;;6.25;;
30249;SDS011;17064;47.974;13.826;2023-02-11T21:44:42;18.73;;;7.47;;
30249;SDS011;17064;47.974;13.826;2023-02-11T21:49:43;15.82;;;7.90;;
30249;SDS011;17064;47.974;13.826;2023-02-11T21:54:47;18.85;;;8.75;;
30249;SDS011;17064;47.974;13.826;2023-02-11T21:59:49;16.23;;;8.10;;
30249;SDS011;17064;47.974;13.826;2023-02-11T22:04:50;22.35;;;8.57;;
30249;SDS011;17064;47.974;13.826;2023-02-11T22:09:51;23.35;;;8.35;;
30249;SDS011;17064;47.974;13.826;2023-02-11T22:14:53;18.15;;;8.10;;
30249;SDS011;17064;47.974;13.826;2023-02-11T22:19:54;17.25;;;8.02;;
30249;SDS011;17064;47.974;13.826;2023-02-11T22:24:58;17.27;;;8.13;;
30249;SDS011;17064;47.974;13.826;2023-02-11T22:30:00;19.08;;;7.45;;
30249;SDS011;17064;47.974;13.826;2023-02-11T22:35:01;21.80;;;10.25;;
30249;SDS011;17064;47.974;13.826;2023-02-11T22:40:02;16.85;;;8.70;;
30249;SDS011;17064;47.974;13.826;2023-02-11T22:45:03;16.20;;;8.40;;
30249;SDS011;17064;47.974;13.826;2023-02-11T22:50:05;14.98;;;7.90;;
30249;SDS011;17064;47.974;13.826;2023-02-11T22:55:06;15.20;;;7.15;;
30249;SDS011;17064;47.974;13.826;2023-02-11T23:00:07;21.73;;;8.35;;
30249;SDS011;17064;47.974;13.826;2023-02-11T23:05:10;17.38;;;8.80;;
30249;SDS011;17064;47.974;13.826;2023-02-11T23:10:11;14.93;;;8.15;;
30249;SDS011;17064;47.974;13.826;2023-02-11T23:15:12;19.48;;;8.55;;
30249;SDS011;17064;47.974;13.826;2023-02-11T23:20:12;18.85;;;9.15;;
30249;SDS011;17064;47.974;13.826;2023-02-11T23:25:13;18.75;;;9.65;;
30249;SDS011;17064;47.974;13.826;2023-02-11T23:30:15;16.45;;;9.30;;
30249;SDS011;17064;47.974;13.826;2023-02-11T23:35:15;23.67;;;9.75;;
30249;SDS011;17064;47.974;13.826;2023-02-11T23:40:21;20.30;;;9.05;;
30249;SDS011;17064;47.974;13.826;2023-02-11T23:45:22;19.33;;;9.32;;
30249;SDS011;17064;47.974;13.826;2023-02-11T23:50:23;23.75;;;9.82;;
30249;SDS011;17064;47.974;13.826;2023-02-11T23:55:24;21.45;;;10.07;;
